Terminal Aerodrome Forecast
Issued by NWS

Home | Current Version | Previous Version | Text Only | Print | Product List | Glossary On
Versions: 1 2 3 4 5 6 7 8 9 10 11 12 13 14
275
FTUS43 KGRB 311134
TAFAUW
TAF
KAUW 311134Z 3112/0112 11007KT P6SM BKN100
     FM311500 12009KT P6SM SCT050 BKN100
     FM312100 14010KT P6SM -SHRA SCT030 OVC050
      TEMPO 3121/0101 5SM -TSRA BKN025CB
     FM010100 15007KT 6SM -SHRA BR SCT025 OVC040
      TEMPO 0101/0105 3SM SHRA BR BKN020
     FM010500 15005KT 5SM -SHRA BR SCT010 OVC020=

USA.gov is the U.S. government's official web portal to all federal, state and local government web resources and services.